createdAt,value
2023-04-08T00:02:15.832Z,19.24
2023-04-08T00:04:46.556Z,19.24
2023-04-08T00:07:18.098Z,19.29
2023-04-08T00:09:48.425Z,19.31
2023-04-08T00:12:18.338Z,19.33
2023-04-08T00:14:48.550Z,19.37
2023-04-08T00:17:19.095Z,19.39
2023-04-08T00:19:49.966Z,19.36
2023-04-08T00:22:20.609Z,19.33
2023-04-08T00:24:51.263Z,19.31
2023-04-08T00:27:21.849Z,19.37
2023-04-08T00:29:53.219Z,19.36
2023-04-08T00:32:23.330Z,19.39
2023-04-08T00:34:55.438Z,19.41
2023-04-08T00:37:28.245Z,19.37
2023-04-08T00:39:59.434Z,19.41
2023-04-08T00:42:31.908Z,19.41
2023-04-08T00:45:02.333Z,19.49
2023-04-08T00:47:33.327Z,19.50
2023-04-08T00:50:06.285Z,19.51
2023-04-08T00:52:36.579Z,19.47
2023-04-08T00:55:06.917Z,19.53
2023-04-08T00:57:38.807Z,19.50
2023-04-08T01:00:10.858Z,19.49
2023-04-08T01:02:53.752Z,19.51
2023-04-08T01:05:50.168Z,19.53
2023-04-08T01:08:22.038Z,19.50
2023-04-08T01:11:00.103Z,19.45
2023-04-08T01:13:35.466Z,19.45
2023-04-08T01:16:06.897Z,19.46
2023-04-08T01:18:39.374Z,19.43
2023-04-08T01:21:10.382Z,19.43
2023-04-08T01:23:51.993Z,19.31
2023-04-08T01:26:27.963Z,19.29
2023-04-08T01:29:03.118Z,19.37
2023-04-08T01:31:34.485Z,19.34
2023-04-08T01:34:06.861Z,19.31
2023-04-08T01:36:40.144Z,19.27
2023-04-08T01:39:11.371Z,19.20
2023-04-08T01:41:42.384Z,19.18
2023-04-08T01:44:13.826Z,19.15
2023-04-08T01:46:45.897Z,19.13
2023-04-08T01:49:18.156Z,19.09
2023-04-08T01:51:50.705Z,19.06
2023-04-08T01:54:21.892Z,19.05
2023-04-08T01:56:55.454Z,19.00
2023-04-08T01:59:31.333Z,18.92
2023-04-08T02:02:03.876Z,18.94
2023-04-08T02:04:37.926Z,18.89
2023-04-08T02:07:09.549Z,18.88
2023-04-08T02:09:41.128Z,18.94
2023-04-08T02:12:11.397Z,19.03
2023-04-08T02:14:41.699Z,19.13
2023-04-08T02:17:30.264Z,19.15
2023-04-08T02:20:11.850Z,19.15
2023-04-08T02:23:05.797Z,19.19
2023-04-08T02:25:39.210Z,19.18
2023-04-08T02:28:13.322Z,19.16
2023-04-08T02:30:52.345Z,19.15
2023-04-08T02:33:24.395Z,19.24
2023-04-08T02:35:57.393Z,19.27
2023-04-08T02:38:30.993Z,19.24
2023-04-08T02:41:03.970Z,19.24
2023-04-08T02:43:34.607Z,19.20
2023-04-08T02:46:08.477Z,19.16
2023-04-08T02:48:39.531Z,19.16
2023-04-08T02:51:10.079Z,19.18
2023-04-08T02:53:40.245Z,19.12
2023-04-08T02:56:13.166Z,19.12
2023-04-08T02:58:44.057Z,19.12
2023-04-08T03:01:15.500Z,19.18
2023-04-08T03:03:46.902Z,19.20
2023-04-08T03:06:17.240Z,19.22
2023-04-08T03:08:48.849Z,19.23
2023-04-08T03:11:19.601Z,19.20
2023-04-08T03:13:49.437Z,19.16
2023-04-08T03:16:19.672Z,19.15
2023-04-08T03:18:52.843Z,19.18
2023-04-08T03:21:23.770Z,19.16
2023-04-08T03:23:54.087Z,19.19
2023-04-08T03:26:24.361Z,19.20
2023-04-08T03:28:55.517Z,19.27
2023-04-08T03:31:28.181Z,19.22
2023-04-08T03:33:58.423Z,19.16
2023-04-08T03:36:28.171Z,19.13
2023-04-08T03:38:59.515Z,19.12
2023-04-08T03:41:30.036Z,19.10
2023-04-08T03:44:00.267Z,19.12
2023-04-08T03:46:30.253Z,19.13
2023-04-08T03:49:00.836Z,19.08
2023-04-08T03:51:30.589Z,19.19
2023-04-08T03:54:00.746Z,19.23
2023-04-08T03:56:31.216Z,19.22
2023-04-08T03:59:01.781Z,19.24
2023-04-08T04:01:33.473Z,19.29
2023-04-08T04:04:03.984Z,19.27
2023-04-08T04:06:34.317Z,19.29
2023-04-08T04:09:05.151Z,19.37
2023-04-08T04:11:37.343Z,19.36
2023-04-08T04:14:07.976Z,19.24
2023-04-08T04:16:38.670Z,19.19
2023-04-08T04:19:10.121Z,19.15
2023-04-08T04:21:43.065Z,19.10
2023-04-08T04:24:14.556Z,19.10
2023-04-08T04:26:46.268Z,19.10
2023-04-08T04:29:16.868Z,19.08
2023-04-08T04:31:47.509Z,19.03
2023-04-08T04:34:17.352Z,19.05
2023-04-08T04:36:48.982Z,18.96
2023-04-08T04:39:19.822Z,18.94
2023-04-08T04:41:50.417Z,18.92
2023-04-08T04:44:21.631Z,18.89
2023-04-08T04:46:52.799Z,18.88
2023-04-08T04:49:24.251Z,18.87
2023-04-08T04:51:54.751Z,18.84
2023-04-08T04:54:24.500Z,18.85
2023-04-08T04:56:54.855Z,18.85
2023-04-08T04:59:24.638Z,18.87
2023-04-08T05:01:55.037Z,18.84
2023-04-08T05:04:27.205Z,18.81
2023-04-08T05:07:01.660Z,18.81
2023-04-08T05:09:32.383Z,18.78
2023-04-08T05:12:02.149Z,18.73
2023-04-08T05:14:33.443Z,18.73
2023-04-08T05:17:03.613Z,18.78
2023-04-08T05:19:34.021Z,18.73
2023-04-08T05:22:05.028Z,18.75
2023-04-08T05:24:36.340Z,18.81
2023-04-08T05:27:07.030Z,18.76
2023-04-08T05:29:36.919Z,18.76
2023-04-08T05:32:07.292Z,18.75
2023-04-08T05:34:37.833Z,18.79
2023-04-08T05:37:07.588Z,18.76
2023-04-08T05:39:37.841Z,18.75
2023-04-08T05:42:07.589Z,18.89
2023-04-08T05:44:38.230Z,18.84
2023-04-08T05:47:08.850Z,18.88
2023-04-08T05:49:39.014Z,18.88
2023-04-08T05:52:08.766Z,18.89
2023-04-08T05:54:39.722Z,18.95
2023-04-08T05:57:10.498Z,18.95
2023-04-08T05:59:40.955Z,18.95
2023-04-08T06:02:10.927Z,18.94
2023-04-08T06:04:41.239Z,18.99
2023-04-08T06:07:11.378Z,18.96
2023-04-08T06:09:43.780Z,18.92
2023-04-08T06:12:15.417Z,18.96
2023-04-08T06:14:45.332Z,18.95
2023-04-08T06:17:15.680Z,18.98
2023-04-08T06:19:46.205Z,18.98
2023-04-08T06:22:17.244Z,19.00
2023-04-08T06:24:50.341Z,19.05
2023-04-08T06:27:20.537Z,19.02
2023-04-08T06:29:50.730Z,19.05
2023-04-08T06:32:21.997Z,18.98
2023-04-08T06:34:52.002Z,18.92
2023-04-08T06:37:21.997Z,18.92
2023-04-08T06:39:53.016Z,18.87
2023-04-08T06:42:24.040Z,18.79
2023-04-08T06:45:09.376Z,18.69
2023-04-08T06:47:39.273Z,18.61
2023-04-08T06:50:10.036Z,18.48
2023-04-08T06:52:40.316Z,18.41
2023-04-08T06:55:10.732Z,18.40
2023-04-08T06:57:41.319Z,18.38
2023-04-08T07:00:11.725Z,18.40
2023-04-08T07:02:42.185Z,18.36
2023-04-08T07:05:12.343Z,18.36
2023-04-08T07:07:43.399Z,18.31
2023-04-08T07:10:14.853Z,18.33
2023-04-08T07:12:45.449Z,18.27
2023-04-08T07:15:15.704Z,18.29
2023-04-08T07:17:48.384Z,18.24
2023-04-08T07:20:19.816Z,18.27
2023-04-08T07:22:49.980Z,18.27
2023-04-08T07:25:20.229Z,18.26
2023-04-08T07:27:51.500Z,18.26
2023-04-08T07:30:21.781Z,18.23
2023-04-08T07:32:51.978Z,18.18
2023-04-08T07:35:27.384Z,18.14
2023-04-08T07:37:59.706Z,18.10
2023-04-08T07:40:30.983Z,18.03
2023-04-08T07:43:01.389Z,17.97
2023-04-08T07:45:31.852Z,17.89
2023-04-08T07:48:02.637Z,17.87
2023-04-08T07:50:32.565Z,17.83
2023-04-08T07:53:02.716Z,17.81
2023-04-08T07:55:36.759Z,17.85
2023-04-08T07:58:07.767Z,18.03
2023-04-08T08:00:37.705Z,18.16
2023-04-08T08:03:07.771Z,18.17
2023-04-08T08:05:38.984Z,18.24
2023-04-08T08:08:09.780Z,18.31
2023-04-08T08:10:42.585Z,18.36
2023-04-08T08:13:16.215Z,18.38
2023-04-08T08:15:47.263Z,18.40
2023-04-08T08:18:18.505Z,18.43
2023-04-08T08:20:48.257Z,18.45
2023-04-08T08:23:18.382Z,18.45
2023-04-08T08:25:48.556Z,18.50
2023-04-08T08:28:19.678Z,18.50
2023-04-08T08:30:50.624Z,18.52
2023-04-08T08:33:20.565Z,18.51
2023-04-08T08:35:50.756Z,18.51
2023-04-08T08:38:21.092Z,18.54
2023-04-08T08:40:59.276Z,18.57
2023-04-08T08:43:34.551Z,18.60
2023-04-08T08:46:04.786Z,18.58
2023-04-08T08:48:35.176Z,18.62
2023-04-08T08:51:13.814Z,18.64
2023-04-08T08:53:46.323Z,18.62
2023-04-08T08:56:18.716Z,18.67
2023-04-08T08:58:50.219Z,18.68
2023-04-08T09:01:54.355Z,18.73
2023-04-08T09:04:24.960Z,18.73
2023-04-08T09:07:12.733Z,18.73
2023-04-08T09:09:53.347Z,18.75
2023-04-08T09:12:24.573Z,18.79
2023-04-08T09:15:11.823Z,18.78
2023-04-08T09:17:44.401Z,18.73
2023-04-08T09:20:16.253Z,18.78
2023-04-08T09:23:00.574Z,18.79
2023-04-08T09:25:33.778Z,18.79
2023-04-08T09:28:04.652Z,18.84
2023-04-08T09:30:34.533Z,18.84
2023-04-08T09:33:08.797Z,18.82
2023-04-08T09:35:39.999Z,18.88
2023-04-08T09:38:12.801Z,18.87
2023-04-08T09:40:45.361Z,18.85
2023-04-08T09:43:21.562Z,18.91
2023-04-08T09:45:53.866Z,18.91
2023-04-08T09:48:32.771Z,18.87
2023-04-08T09:51:04.009Z,18.87
2023-04-08T09:53:42.981Z,18.88
2023-04-08T09:56:15.935Z,18.85
2023-04-08T09:59:06.826Z,18.89
2023-04-08T10:01:46.350Z,18.96
2023-04-08T10:04:22.343Z,18.99
2023-04-08T10:06:55.800Z,19.06
2023-04-08T10:09:26.174Z,19.08
2023-04-08T10:11:56.659Z,19.09
2023-04-08T10:14:30.272Z,19.13
2023-04-08T10:17:37.876Z,19.15
2023-04-08T10:20:40.495Z,19.20
2023-04-08T10:23:16.043Z,19.10
2023-04-08T10:25:51.088Z,19.16
2023-04-08T10:28:25.522Z,19.19
2023-04-08T10:31:01.382Z,19.22
2023-04-08T10:33:31.318Z,19.18
2023-04-08T10:36:13.970Z,19.13
2023-04-08T10:38:45.484Z,19.18
2023-04-08T10:41:25.281Z,19.27
2023-04-08T10:43:55.710Z,19.29
2023-04-08T10:46:29.915Z,19.41
2023-04-08T10:49:03.961Z,19.50
2023-04-08T10:51:36.250Z,19.50
2023-04-08T10:54:15.154Z,19.68
2023-04-08T10:56:49.012Z,19.82
2023-04-08T10:59:29.354Z,20.04
2023-04-08T11:01:59.867Z,20.29
2023-04-08T11:04:30.455Z,20.53
2023-04-08T11:07:00.864Z,20.80
2023-04-08T11:09:31.342Z,20.94
2023-04-08T11:12:02.041Z,21.21
2023-04-08T11:14:34.383Z,21.41
2023-04-08T11:17:07.110Z,21.52
2023-04-08T11:19:38.588Z,21.45
2023-04-08T11:22:11.921Z,21.11
2023-04-08T11:24:42.561Z,21.04
2023-04-08T11:27:12.419Z,21.04
2023-04-08T11:29:43.608Z,21.03
2023-04-08T11:32:14.253Z,20.96
2023-04-08T11:34:44.063Z,20.86
2023-04-08T11:37:14.778Z,20.94
2023-04-08T11:39:48.510Z,20.88
2023-04-08T11:42:33.981Z,20.81
2023-04-08T11:45:11.774Z,20.79
2023-04-08T11:47:42.735Z,20.66
2023-04-08T11:50:12.886Z,20.72
2023-04-08T11:52:49.759Z,20.83
2023-04-08T11:55:46.884Z,20.94
2023-04-08T11:58:18.887Z,21.00
2023-04-08T12:00:50.766Z,20.98
2023-04-08T12:03:21.803Z,21.04
2023-04-08T12:05:53.248Z,21.12
2023-04-08T12:08:23.826Z,21.25
2023-04-08T12:10:54.065Z,21.37
2023-04-08T12:13:25.828Z,21.31
2023-04-08T12:15:56.790Z,21.48
2023-04-08T12:18:26.658Z,21.58
2023-04-08T12:20:56.837Z,21.66
2023-04-08T12:23:27.210Z,21.72
2023-04-08T12:25:57.805Z,21.78
2023-04-08T12:28:27.520Z,21.76
2023-04-08T12:30:58.380Z,21.55
2023-04-08T12:33:28.116Z,21.39
2023-04-08T12:36:02.573Z,21.54
2023-04-08T12:38:34.563Z,21.58
2023-04-08T12:41:05.067Z,21.54
2023-04-08T12:43:36.036Z,21.48
2023-04-08T12:46:07.541Z,21.59
2023-04-08T12:48:40.641Z,21.69
2023-04-08T12:51:11.582Z,21.76
2023-04-08T12:53:41.310Z,21.73
2023-04-08T12:56:12.242Z,21.73
2023-04-08T12:58:43.103Z,21.63
2023-04-08T13:01:13.988Z,21.56
2023-04-08T13:03:46.395Z,21.39
2023-04-08T13:06:17.965Z,21.24
2023-04-08T13:08:49.126Z,21.34
2023-04-08T13:11:19.637Z,21.39
2023-04-08T13:13:49.782Z,21.30
2023-04-08T13:16:19.940Z,21.17
2023-04-08T13:18:51.653Z,21.34
2023-04-08T13:21:22.883Z,21.30
2023-04-08T13:23:52.985Z,21.20
2023-04-08T13:26:23.276Z,21.08
2023-04-08T13:28:57.653Z,21.17
2023-04-08T13:31:29.856Z,21.03
2023-04-08T13:34:00.643Z,20.90
2023-04-08T13:36:30.709Z,20.73
2023-04-08T13:39:01.876Z,21.01
2023-04-08T13:41:32.556Z,20.93
2023-04-08T13:44:02.645Z,20.84
2023-04-08T13:46:32.923Z,20.79
2023-04-08T13:49:04.361Z,20.70
2023-04-08T13:51:35.016Z,20.76
2023-04-08T13:54:05.719Z,20.74
2023-04-08T13:56:36.064Z,20.63
2023-04-08T13:59:06.721Z,20.45
2023-04-08T14:01:37.459Z,20.47
2023-04-08T14:04:08.227Z,20.49
2023-04-08T14:06:38.474Z,20.47
2023-04-08T14:09:09.180Z,20.57
2023-04-08T14:11:40.043Z,20.59
2023-04-08T14:14:10.046Z,20.62
2023-04-08T14:16:41.321Z,20.77
2023-04-08T14:19:11.606Z,20.87
2023-04-08T14:21:41.566Z,21.07
2023-04-08T14:24:11.803Z,21.31
2023-04-08T14:26:42.171Z,21.62
2023-04-08T14:29:13.622Z,21.78
2023-04-08T14:31:43.664Z,22.24
2023-04-08T14:34:13.458Z,22.64
2023-04-08T14:36:44.483Z,22.79
2023-04-08T14:39:15.217Z,22.98
2023-04-08T14:41:49.110Z,23.23
2023-04-08T14:44:19.028Z,23.47
2023-04-08T14:46:49.241Z,23.51
2023-04-08T14:49:20.924Z,23.60
2023-04-08T14:51:53.218Z,23.27
2023-04-08T14:54:25.022Z,23.33
2023-04-08T14:56:55.737Z,23.23
2023-04-08T14:59:25.565Z,23.33
2023-04-08T15:01:56.305Z,23.12
2023-04-08T15:04:27.514Z,22.92
2023-04-08T15:06:58.243Z,23.15
2023-04-08T15:09:28.039Z,23.39
2023-04-08T15:11:59.434Z,23.26
2023-04-08T15:14:30.231Z,23.27
2023-04-08T15:17:02.782Z,23.57
2023-04-08T15:19:32.703Z,23.60
2023-04-08T15:22:02.451Z,23.47
2023-04-08T15:24:33.047Z,23.24
2023-04-08T15:27:09.687Z,23.40
2023-04-08T15:30:02.387Z,23.24
2023-04-08T15:32:44.180Z,23.05
2023-04-08T15:35:29.324Z,22.65
2023-04-08T15:38:13.494Z,22.65
2023-04-08T15:41:06.851Z,22.68
2023-04-08T15:43:50.159Z,22.54
2023-04-08T15:46:39.713Z,22.34
2023-04-08T15:49:23.822Z,22.36
2023-04-08T15:52:14.590Z,22.21
2023-04-08T15:54:51.575Z,22.27
2023-04-08T15:57:43.854Z,22.48
2023-04-08T16:00:22.125Z,22.54
2023-04-08T16:03:56.610Z,22.67
2023-04-08T16:06:27.367Z,22.81
2023-04-08T16:08:58.380Z,22.82
2023-04-08T16:11:30.358Z,22.71
2023-04-08T16:14:00.907Z,22.82
2023-04-08T16:16:31.737Z,22.81
2023-04-08T16:19:03.399Z,22.78
2023-04-08T16:21:34.691Z,22.89
2023-04-08T16:24:06.960Z,22.68
2023-04-08T16:26:37.788Z,22.50
2023-04-08T16:29:09.535Z,22.47
2023-04-08T16:31:47.508Z,22.44
2023-04-08T16:34:18.171Z,22.52
2023-04-08T16:36:48.920Z,22.60
2023-04-08T16:39:19.056Z,22.61
2023-04-08T16:41:49.571Z,22.62
2023-04-08T16:44:21.218Z,22.72
2023-04-08T16:46:51.855Z,22.85
2023-04-08T16:49:21.839Z,22.94
2023-04-08T16:51:52.029Z,22.99
2023-04-08T16:54:22.396Z,23.06
2023-04-08T16:56:53.183Z,23.01
2023-04-08T16:59:25.573Z,22.98
2023-04-08T17:01:55.990Z,23.09
2023-04-08T17:04:26.530Z,23.05
2023-04-08T17:06:58.687Z,23.16
2023-04-08T17:09:29.258Z,23.26
2023-04-08T17:11:59.220Z,23.12
2023-04-08T17:14:31.254Z,23.22
2023-04-08T17:17:02.483Z,23.50
2023-04-08T17:19:43.184Z,23.53
2023-04-08T17:22:13.728Z,23.59
2023-04-08T17:24:47.829Z,23.60
2023-04-08T17:27:19.167Z,23.70
2023-04-08T17:29:49.262Z,23.93
2023-04-08T17:32:19.074Z,23.93
2023-04-08T17:34:49.237Z,23.78
2023-04-08T17:37:19.787Z,23.74
2023-04-08T17:39:52.831Z,23.71
2023-04-08T17:42:24.822Z,23.67
2023-04-08T17:45:04.876Z,23.53
2023-04-08T17:47:34.987Z,23.66
2023-04-08T17:50:06.092Z,23.67
2023-04-08T17:52:36.418Z,23.59
2023-04-08T17:55:06.742Z,23.68
2023-04-08T17:57:38.177Z,23.80
2023-04-08T18:00:10.029Z,23.63
2023-04-08T18:02:42.866Z,23.46
2023-04-08T18:05:13.873Z,23.40
2023-04-08T18:07:43.835Z,23.34
2023-04-08T18:10:14.049Z,23.47
2023-04-08T18:12:44.323Z,23.67
2023-04-08T18:15:14.741Z,23.59
2023-04-08T18:17:44.751Z,23.97
2023-04-08T18:20:14.728Z,24.77
2023-04-08T18:22:45.211Z,24.79
2023-04-08T18:25:14.940Z,25.76
2023-04-08T18:27:45.664Z,26.75
2023-04-08T18:30:15.983Z,26.26
2023-04-08T18:32:47.826Z,25.79
2023-04-08T18:35:18.156Z,27.45
2023-04-08T18:37:47.906Z,28.27
2023-04-08T18:40:18.931Z,28.05
2023-04-08T18:42:49.713Z,30.67
2023-04-08T18:45:20.129Z,31.80
2023-04-08T18:47:50.321Z,32.79
2023-04-08T18:50:20.605Z,32.61
2023-04-08T18:52:52.855Z,32.75
2023-04-08T18:55:24.136Z,30.91
2023-04-08T18:57:54.705Z,29.64
2023-04-08T19:00:24.609Z,30.47
2023-04-08T19:02:55.714Z,32.39
2023-04-08T19:05:27.238Z,27.98
2023-04-08T19:07:57.365Z,26.92
2023-04-08T19:10:27.182Z,26.13
2023-04-08T19:12:58.233Z,25.46
2023-04-08T19:15:30.447Z,24.59
2023-04-08T19:18:02.561Z,23.93
2023-04-08T19:20:34.327Z,23.73
2023-04-08T19:23:04.676Z,23.54
2023-04-08T19:25:36.026Z,23.22
2023-04-08T19:28:09.585Z,23.12
2023-04-08T19:30:40.765Z,23.23
2023-04-08T19:33:11.403Z,23.33
2023-04-08T19:35:41.617Z,23.26
2023-04-08T19:38:13.192Z,23.40
2023-04-08T19:40:43.331Z,23.50
2023-04-08T19:43:13.441Z,23.31
2023-04-08T19:45:43.801Z,23.23
2023-04-08T19:48:14.235Z,23.23
2023-04-08T19:50:44.791Z,23.23
2023-04-08T19:53:15.042Z,23.09
2023-04-08T19:55:45.746Z,23.08
2023-04-08T19:58:15.947Z,23.09
2023-04-08T20:00:46.568Z,23.10
2023-04-08T20:03:16.764Z,23.10
2023-04-08T20:05:49.883Z,23.15
2023-04-08T20:08:20.718Z,23.02
2023-04-08T20:10:51.142Z,22.78
2023-04-08T20:13:21.887Z,22.55
2023-04-08T20:15:53.958Z,22.37
2023-04-08T20:18:25.278Z,22.23
2023-04-08T20:20:56.418Z,22.10
2023-04-08T20:23:27.766Z,22.00
2023-04-08T20:25:59.532Z,21.93
2023-04-08T20:28:31.513Z,21.86
2023-04-08T20:31:04.532Z,21.83
2023-04-08T20:33:35.856Z,21.79
2023-04-08T20:36:06.320Z,21.71
2023-04-08T20:38:37.990Z,21.61
2023-04-08T20:41:08.674Z,21.52
2023-04-08T20:43:38.459Z,21.39
2023-04-08T20:46:08.739Z,21.32
2023-04-08T20:48:39.385Z,21.24
2023-04-08T20:51:09.746Z,21.15
2023-04-08T20:53:44.423Z,21.07
2023-04-08T20:56:16.123Z,20.98
2023-04-08T20:58:45.909Z,20.87
2023-04-08T21:01:16.990Z,20.81
2023-04-08T21:03:48.189Z,20.72
2023-04-08T21:06:22.012Z,20.63
2023-04-08T21:08:54.134Z,20.57
2023-04-08T21:11:25.195Z,20.55
2023-04-08T21:13:55.948Z,20.45
2023-04-08T21:16:26.110Z,20.42
2023-04-08T21:18:55.948Z,20.42
2023-04-08T21:21:26.183Z,20.39
2023-04-08T21:23:56.746Z,20.36
2023-04-08T21:26:28.891Z,20.30
2023-04-08T21:28:58.943Z,20.32
2023-04-08T21:31:29.811Z,20.35
2023-04-08T21:34:00.148Z,20.33
2023-04-08T21:36:31.945Z,20.32
2023-04-08T21:39:03.484Z,20.29
2023-04-08T21:41:33.996Z,20.28
2023-04-08T21:44:06.655Z,20.29
2023-04-08T21:46:37.374Z,20.28
2023-04-08T21:49:08.061Z,20.29
2023-04-08T21:51:40.136Z,20.28
2023-04-08T21:54:10.220Z,20.26
2023-04-08T21:56:40.956Z,20.24
2023-04-08T21:59:13.104Z,20.19
2023-04-08T22:01:43.338Z,20.21
2023-04-08T22:04:13.559Z,20.14
2023-04-08T22:06:44.551Z,20.15
2023-04-08T22:09:14.581Z,20.18
2023-04-08T22:11:45.276Z,20.18
2023-04-08T22:14:16.610Z,20.18
2023-04-08T22:16:48.174Z,20.15
2023-04-08T22:19:18.976Z,20.16
2023-04-08T22:21:49.159Z,20.14
2023-04-08T22:24:20.196Z,20.11
2023-04-08T22:26:51.813Z,20.07
2023-04-08T22:29:22.515Z,20.05
2023-04-08T22:31:53.762Z,20.08
2023-04-08T22:34:25.723Z,20.01
2023-04-08T22:36:56.513Z,19.98
2023-04-08T22:39:28.775Z,19.94
2023-04-08T22:41:59.217Z,19.89
2023-04-08T22:44:29.039Z,19.85
2023-04-08T22:47:01.994Z,19.79
2023-04-08T22:49:40.447Z,19.78
2023-04-08T22:52:11.927Z,19.73
2023-04-08T22:54:42.323Z,19.68
2023-04-08T22:57:12.150Z,19.67
2023-04-08T22:59:43.839Z,19.74
2023-04-08T23:02:15.339Z,19.70
2023-04-08T23:04:51.028Z,19.68
2023-04-08T23:07:23.943Z,19.68
2023-04-08T23:09:54.741Z,19.66
2023-04-08T23:12:26.007Z,19.64
2023-04-08T23:15:19.670Z,19.58
2023-04-08T23:17:53.918Z,19.50
2023-04-08T23:20:24.927Z,19.39
2023-04-08T23:22:55.928Z,19.41
2023-04-08T23:25:26.527Z,19.40
2023-04-08T23:27:57.087Z,19.45
2023-04-08T23:30:27.604Z,19.40
2023-04-08T23:33:23.999Z,19.34
2023-04-08T23:35:58.600Z,19.23
2023-04-08T23:38:28.750Z,19.22
2023-04-08T23:40:59.586Z,19.18
2023-04-08T23:43:30.627Z,19.10
2023-04-08T23:46:00.508Z,19.08
2023-04-08T23:48:30.444Z,19.08
2023-04-08T23:51:02.370Z,19.05
2023-04-08T23:53:35.937Z,19.09
2023-04-08T23:56:10.428Z,19.12
2023-04-08T23:58:41.219Z,19.18
